This is the latest recevied weather packets stored in our database for station/object OE9FWV. If no packets are shown the sender has not sent any weather packets the latest 1 day(s).
| Time | Temp. | Humidity | Pressure | Rain* | Wind** | Luminosity | Snow |
|---|---|---|---|---|---|---|---|
| 1836274320 | 13.33° C | 84% | 1021.7 hPa | 0 mm | 0 m/s | - | - |
| 1836274174 | 13.33° C | 86% | 1021.7 hPa | 0 mm | 0 m/s | - | - |
| 1778027288 | 11.67° C | 81% | 1008.6 hPa | 0 mm | 0 m/s | - | - |
| 1778026686 | 11.67° C | 81% | 1008.8 hPa | 0 mm | 0 m/s | - | - |
| 1778026084 | 11.11° C | 81% | 1008.9 hPa | 0 mm | 0 m/s | - | - |
| 1778025482 | 11.67° C | 81% | 1008.9 hPa | 0 mm | 0 m/s | - | - |
| 1778024876 | 11.67° C | 80% | 1008.9 hPa | 0 mm | 0 m/s | - | - |
| 1778024269 | 11.67° C | 79% | 1008.7 hPa | 0 mm | 0 m/s | - | - |
| 1778023062 | 12.22° C | 78% | 1009 hPa | 0 mm | 0 m/s | - | - |
| 1778022455 | 12.22° C | 78% | 1009 hPa | 0 mm | 0 m/s | - | - |
| 1778021849 | 12.22° C | 78% | 1009.1 hPa | 0 mm | 0 m/s | - | - |
| 1778021246 | 12.22° C | 77% | 1009.1 hPa | 0 mm | 0 m/s | - | - |
| 1778020643 | 12.78° C | 76% | 1009.1 hPa | 0 mm | 0 m/s | - | - |
| 1778020037 | 12.78° C | 76% | 1009.1 hPa | 0 mm | 0 m/s | - | - |
| 1778019436 | 12.78° C | 76% | 1009 hPa | 0 mm | 0 m/s | - | - |
| 1778018835 | 12.78° C | 76% | 1009 hPa | 0 mm | 0 m/s | - | - |
| 1778018222 | 13.33° C | 75% | 1009 hPa | 0 mm | 0 m/s | - | - |
| 1778017620 | 13.33° C | 75% | 1009.2 hPa | 0 mm | 0 m/s | - | - |
| 1778017018 | 13.33° C | 74% | 1009.2 hPa | 0 mm | 0 m/s | - | - |
| 1778016417 | 13.33° C | 74% | 1009.3 hPa | 0 mm | 0 m/s | - | - |
| 1778015211 | 13.89° C | 72% | 1009.2 hPa | 0 mm | 0 m/s | - | - |
| 1778014611 | 13.89° C | 72% | 1009.1 hPa | 0 mm | 0 m/s | - | - |
| 1778014008 | 13.89° C | 71% | 1009.1 hPa | 0 mm | 0 m/s | - | - |
| 1778013406 | 14.44° C | 70% | 1009 hPa | 0 mm | 0 m/s | - | - |
| 1778012805 | 14.44° C | 70% | 1009 hPa | 0 mm | 0 m/s | - | - |
* Rain latest hour (hover to see other rain measurements)
** Current wind speed in m/s (hover to see current wind gust speed)